createdAt,value
2023-05-06T00:00:05.659Z,216
2023-05-06T00:00:35.469Z,202
2023-05-06T00:01:08.257Z,216
2023-05-06T00:01:39.445Z,202
2023-05-06T00:02:12.359Z,202
2023-05-06T00:02:43.345Z,224
2023-05-06T00:03:16.261Z,202
2023-05-06T00:03:47.864Z,202
2023-05-06T00:04:20.337Z,202
2023-05-06T00:04:51.535Z,196
2023-05-06T00:05:25.725Z,227
2023-05-06T00:05:55.916Z,227
2023-05-06T00:06:28.168Z,227
2023-05-06T00:06:59.354Z,227
2023-05-06T00:07:32.471Z,227
2023-05-06T00:08:03.309Z,227
2023-05-06T00:08:36.351Z,239
2023-05-06T00:09:07.548Z,226
2023-05-06T00:09:40.488Z,226
2023-05-06T00:10:11.531Z,226
2023-05-06T00:10:44.246Z,235
2023-05-06T00:11:15.559Z,235
2023-05-06T00:11:48.254Z,235
2023-05-06T00:12:19.444Z,235
2023-05-06T00:12:52.477Z,235
2023-05-06T00:13:23.542Z,235
2023-05-06T00:13:56.157Z,235
2023-05-06T00:14:27.512Z,235
2023-05-06T00:15:01.750Z,235
2023-05-06T00:15:32.348Z,235
2023-05-06T00:16:04.093Z,232
2023-05-06T00:16:35.393Z,241
2023-05-06T00:17:08.217Z,236
2023-05-06T00:17:39.288Z,236
2023-05-06T00:18:12.046Z,235
2023-05-06T00:18:43.296Z,235
2023-05-06T00:19:15.915Z,247
2023-05-06T00:19:47.418Z,235
2023-05-06T00:20:20.454Z,235
2023-05-06T00:20:51.280Z,244
2023-05-06T00:21:24.128Z,244
2023-05-06T00:21:55.513Z,244
2023-05-06T00:22:28.261Z,236
2023-05-06T00:22:59.257Z,236
2023-05-06T00:23:32.241Z,241
2023-05-06T00:24:03.375Z,236
2023-05-06T00:24:36.398Z,244
2023-05-06T00:25:07.998Z,236
2023-05-06T00:25:40.242Z,244
2023-05-06T00:26:11.394Z,244
2023-05-06T00:26:44.308Z,244
2023-05-06T00:27:15.308Z,244
2023-05-06T00:27:48.217Z,244
2023-05-06T00:28:19.398Z,249
2023-05-06T00:28:52.332Z,245
2023-05-06T00:29:23.342Z,245
2023-05-06T00:29:56.265Z,245
2023-05-06T00:30:28.394Z,245
2023-05-06T00:31:00.150Z,245
2023-05-06T00:31:31.573Z,245
2023-05-06T00:32:04.120Z,245
2023-05-06T00:32:35.418Z,251
2023-05-06T00:33:08.461Z,263
2023-05-06T00:33:39.457Z,251
2023-05-06T00:34:11.967Z,251
2023-05-06T00:34:43.304Z,249
2023-05-06T00:35:16.382Z,249
2023-05-06T00:35:47.250Z,178
2023-05-06T00:36:20.221Z,251
2023-05-06T00:36:51.360Z,251
2023-05-06T00:37:24.377Z,229
2023-05-06T00:37:55.417Z,251
2023-05-06T00:38:28.109Z,240
2023-05-06T00:38:59.414Z,240
2023-05-06T00:39:32.207Z,240
2023-05-06T00:40:03.696Z,240
2023-05-06T00:40:36.180Z,240
2023-05-06T00:41:07.282Z,240
2023-05-06T00:41:40.153Z,240
2023-05-06T00:42:11.362Z,240
2023-05-06T00:42:44.372Z,240
2023-05-06T00:43:15.316Z,240
2023-05-06T00:43:48.155Z,240
2023-05-06T00:44:19.432Z,230
2023-05-06T00:44:52.320Z,236
2023-05-06T00:45:24.390Z,234
2023-05-06T00:45:56.512Z,234
2023-05-06T00:46:27.475Z,236
2023-05-06T00:47:01.120Z,244
2023-05-06T00:47:31.384Z,244
2023-05-06T00:48:04.447Z,244
2023-05-06T00:48:35.457Z,244
2023-05-06T00:49:08.291Z,244
2023-05-06T00:49:39.431Z,244
2023-05-06T00:50:12.387Z,228
2023-05-06T00:50:43.311Z,228
2023-05-06T00:50:59.822Z,228
2023-05-06T00:51:31.370Z,244
2023-05-06T00:52:03.286Z,244
2023-05-06T00:52:35.383Z,244
2023-05-06T00:53:07.461Z,244
2023-05-06T00:53:39.318Z,244
2023-05-06T00:54:11.366Z,244
2023-05-06T00:54:43.424Z,244
2023-05-06T00:55:15.647Z,228
2023-05-06T00:55:48.093Z,228
2023-05-06T00:56:20.870Z,228
2023-05-06T00:56:52.091Z,228
2023-05-06T00:57:23.315Z,228
2023-05-06T00:57:56.186Z,228
2023-05-06T00:58:27.573Z,228
2023-05-06T00:59:00.053Z,229
2023-05-06T00:59:31.362Z,242
2023-05-06T01:00:05.756Z,167
2023-05-06T01:00:35.571Z,242
2023-05-06T01:01:08.301Z,248
2023-05-06T01:01:39.426Z,255
2023-05-06T01:02:12.253Z,248
2023-05-06T01:02:47.470Z,248
2023-05-06T01:03:17.083Z,255
2023-05-06T01:03:47.569Z,255
2023-05-06T01:04:20.821Z,255
2023-05-06T01:04:51.453Z,255
2023-05-06T01:05:24.458Z,255
2023-05-06T01:05:55.473Z,233
2023-05-06T01:06:28.050Z,196
2023-05-06T01:06:59.328Z,196
2023-05-06T01:07:32.234Z,255
2023-05-06T01:08:03.329Z,255
2023-05-06T01:08:36.307Z,255
2023-05-06T01:09:07.446Z,246
2023-05-06T01:09:40.240Z,254
2023-05-06T01:10:11.557Z,254
2023-05-06T01:10:44.301Z,239
2023-05-06T01:11:15.989Z,283
2023-05-06T01:11:48.061Z,252
2023-05-06T01:12:19.404Z,252
2023-05-06T01:12:52.440Z,239
2023-05-06T01:13:23.584Z,241
2023-05-06T01:13:56.070Z,239
2023-05-06T01:14:27.332Z,238
2023-05-06T01:15:01.799Z,238
2023-05-06T01:15:31.565Z,238
2023-05-06T01:16:04.271Z,246
2023-05-06T01:16:35.556Z,246
2023-05-06T01:17:08.758Z,254
2023-05-06T01:17:39.433Z,245
2023-05-06T01:18:12.255Z,245
2023-05-06T01:18:43.491Z,245
2023-05-06T01:19:16.580Z,245
2023-05-06T01:19:47.425Z,245
2023-05-06T01:20:20.738Z,245
2023-05-06T01:20:51.552Z,245
2023-05-06T01:21:24.160Z,236
2023-05-06T01:21:55.542Z,236
2023-05-06T01:22:28.461Z,236
2023-05-06T01:22:59.590Z,236
2023-05-06T01:23:32.500Z,236
2023-05-06T01:24:03.416Z,236
2023-05-06T01:24:36.276Z,236
2023-05-06T01:25:08.086Z,236
2023-05-06T01:25:40.271Z,236
2023-05-06T01:26:11.493Z,236
2023-05-06T01:26:44.262Z,236
2023-05-06T01:27:15.423Z,235
2023-05-06T01:27:48.273Z,236
2023-05-06T01:28:19.507Z,220
2023-05-06T01:28:52.122Z,238
2023-05-06T01:29:23.661Z,273
2023-05-06T01:29:56.141Z,240
2023-05-06T01:30:28.344Z,221
2023-05-06T01:31:00.194Z,221
2023-05-06T01:31:31.535Z,269
2023-05-06T01:32:04.479Z,232
2023-05-06T01:32:35.513Z,226
2023-05-06T01:33:08.440Z,232
2023-05-06T01:33:39.477Z,240
2023-05-06T01:34:12.459Z,271
2023-05-06T01:34:43.506Z,271
2023-05-06T01:34:59.608Z,271
2023-05-06T01:35:31.832Z,223
2023-05-06T01:36:03.403Z,223
2023-05-06T01:36:35.321Z,223
2023-05-06T01:37:07.439Z,216
2023-05-06T01:37:40.322Z,232
2023-05-06T01:38:11.606Z,228
2023-05-06T01:38:44.284Z,232
2023-05-06T01:39:15.382Z,232
2023-05-06T01:39:48.189Z,223
2023-05-06T01:40:19.598Z,257
2023-05-06T01:40:52.396Z,232
2023-05-06T01:41:23.390Z,232
2023-05-06T01:41:56.393Z,38
2023-05-06T01:42:27.304Z,210
2023-05-06T01:43:00.169Z,228
2023-05-06T01:43:31.535Z,228
2023-05-06T01:44:04.196Z,265
2023-05-06T01:44:35.289Z,265
2023-05-06T01:45:09.672Z,255
2023-05-06T01:45:39.700Z,235
2023-05-06T01:46:12.248Z,235
2023-05-06T01:46:43.417Z,234
2023-05-06T01:47:16.440Z,246
2023-05-06T01:47:47.446Z,258
2023-05-06T01:48:20.144Z,258
2023-05-06T01:48:51.471Z,266
2023-05-06T01:49:24.176Z,258
2023-05-06T01:49:55.396Z,250
2023-05-06T01:50:28.433Z,260
2023-05-06T01:50:59.518Z,253
2023-05-06T01:51:32.051Z,260
2023-05-06T01:52:03.366Z,260
2023-05-06T01:52:36.297Z,258
2023-05-06T01:53:07.509Z,260
2023-05-06T01:53:40.084Z,258
2023-05-06T01:54:11.437Z,237
2023-05-06T01:54:44.215Z,243
2023-05-06T01:55:15.634Z,258
2023-05-06T01:55:48.206Z,258
2023-05-06T01:56:19.396Z,260
2023-05-06T01:56:52.282Z,254
2023-05-06T01:57:23.347Z,253
2023-05-06T01:57:56.330Z,247
2023-05-06T01:58:27.393Z,247
2023-05-06T01:59:00.342Z,247
2023-05-06T01:59:31.409Z,247
2023-05-06T02:00:05.645Z,247
2023-05-06T02:00:35.462Z,254
2023-05-06T02:01:08.166Z,248
2023-05-06T02:01:39.545Z,247
2023-05-06T02:02:12.296Z,247
2023-05-06T02:02:43.519Z,247
2023-05-06T02:02:59.522Z,247
2023-05-06T02:03:31.647Z,247
2023-05-06T02:04:03.598Z,247
2023-05-06T02:04:36.058Z,247
2023-05-06T02:05:07.967Z,247
2023-05-06T02:05:40.067Z,240
2023-05-06T02:06:11.267Z,247
2023-05-06T02:06:44.146Z,247
2023-05-06T02:07:15.692Z,247
2023-05-06T02:07:48.264Z,247
2023-05-06T02:08:19.422Z,247
2023-05-06T02:08:52.220Z,247
2023-05-06T02:09:23.475Z,247
2023-05-06T02:09:56.334Z,247
2023-05-06T02:10:27.811Z,247
2023-05-06T02:10:59.994Z,247
2023-05-06T02:11:31.454Z,249
2023-05-06T02:12:05.055Z,249
2023-05-06T02:12:35.625Z,249
2023-05-06T02:13:08.215Z,249
2023-05-06T02:13:39.384Z,242
2023-05-06T02:14:12.218Z,244
2023-05-06T02:14:43.516Z,242
2023-05-06T02:15:17.104Z,242
2023-05-06T02:15:47.656Z,242
2023-05-06T02:16:20.258Z,237
2023-05-06T02:16:51.465Z,267
2023-05-06T02:17:24.297Z,267
2023-05-06T02:17:55.486Z,271
2023-05-06T02:18:28.243Z,270
2023-05-06T02:18:59.465Z,270
2023-05-06T02:19:32.117Z,267
2023-05-06T02:20:03.862Z,267
2023-05-06T02:20:36.335Z,267
2023-05-06T02:21:07.503Z,267
2023-05-06T02:21:40.319Z,267
2023-05-06T02:22:11.565Z,267
2023-05-06T02:22:44.236Z,267
2023-05-06T02:23:15.438Z,267
2023-05-06T02:23:48.237Z,267
2023-05-06T02:24:19.335Z,274
2023-05-06T02:24:52.248Z,274
2023-05-06T02:25:23.853Z,267
2023-05-06T02:25:56.255Z,267
2023-05-06T02:26:27.405Z,267
2023-05-06T02:27:00.156Z,267
2023-05-06T02:27:31.542Z,267
2023-05-06T02:28:04.232Z,258
2023-05-06T02:28:35.270Z,242
2023-05-06T02:29:08.130Z,260
2023-05-06T02:29:39.621Z,260
2023-05-06T02:30:13.011Z,260
2023-05-06T02:30:43.641Z,236
2023-05-06T02:31:16.357Z,265
2023-05-06T02:31:47.422Z,260
2023-05-06T02:32:20.315Z,265
2023-05-06T02:32:51.608Z,258
2023-05-06T02:33:24.367Z,258
2023-05-06T02:33:55.460Z,242
2023-05-06T02:34:28.269Z,258
2023-05-06T02:34:59.544Z,258
2023-05-06T02:35:32.445Z,249
2023-05-06T02:36:03.440Z,249
2023-05-06T02:36:36.379Z,256
2023-05-06T02:37:07.468Z,256
2023-05-06T02:37:40.435Z,256
2023-05-06T02:38:11.567Z,256
2023-05-06T02:38:44.403Z,256
2023-05-06T02:39:15.478Z,256
2023-05-06T02:39:48.318Z,256
2023-05-06T02:40:19.952Z,256
2023-05-06T02:40:52.281Z,256
2023-05-06T02:41:23.515Z,256
2023-05-06T02:41:56.367Z,256
2023-05-06T02:42:27.654Z,256
2023-05-06T02:43:00.505Z,256
2023-05-06T02:43:31.502Z,256
2023-05-06T02:44:04.436Z,255
2023-05-06T02:44:35.726Z,262
2023-05-06T02:45:09.895Z,255
2023-05-06T02:45:39.668Z,255
2023-05-06T02:46:12.351Z,255
2023-05-06T02:46:43.350Z,282
2023-05-06T02:47:16.290Z,282
2023-05-06T02:47:47.540Z,285
2023-05-06T02:48:20.323Z,277
2023-05-06T02:48:51.400Z,277
2023-05-06T02:49:24.376Z,257
2023-05-06T02:49:55.450Z,266
2023-05-06T02:50:28.553Z,273
2023-05-06T02:50:59.529Z,273
2023-05-06T02:51:32.526Z,257
2023-05-06T02:52:03.478Z,257
2023-05-06T02:52:36.474Z,266
2023-05-06T02:53:07.452Z,259
2023-05-06T02:53:40.298Z,259
2023-05-06T02:54:11.549Z,266
2023-05-06T02:54:44.284Z,266
2023-05-06T02:55:15.785Z,266
2023-05-06T02:55:48.301Z,266
2023-05-06T02:56:19.394Z,264
2023-05-06T02:56:52.170Z,266
2023-05-06T02:57:23.406Z,265
2023-05-06T02:57:56.218Z,258
2023-05-06T02:58:27.448Z,258
2023-05-06T02:59:00.636Z,265
2023-05-06T02:59:31.469Z,265
2023-05-06T03:00:05.937Z,265
2023-05-06T03:00:35.649Z,265
2023-05-06T03:01:08.293Z,265
2023-05-06T03:01:39.535Z,265
2023-05-06T03:02:12.506Z,265
2023-05-06T03:02:43.574Z,265
2023-05-06T03:03:16.172Z,267
2023-05-06T03:03:47.524Z,275
2023-05-06T03:04:20.427Z,253
2023-05-06T03:04:51.439Z,270
2023-05-06T03:05:24.586Z,263
2023-05-06T03:05:55.573Z,263
2023-05-06T03:06:28.600Z,267
2023-05-06T03:06:59.332Z,267
2023-05-06T03:07:32.470Z,281
2023-05-06T03:08:03.631Z,275
2023-05-06T03:08:36.326Z,275
2023-05-06T03:09:07.484Z,275
2023-05-06T03:09:41.457Z,275
2023-05-06T03:10:11.738Z,275
2023-05-06T03:10:44.275Z,278
2023-05-06T03:11:15.401Z,276
2023-05-06T03:11:48.384Z,276
2023-05-06T03:12:19.457Z,274
2023-05-06T03:12:55.672Z,276
2023-05-06T03:13:23.516Z,274
2023-05-06T03:13:56.435Z,274
2023-05-06T03:14:27.512Z,274
2023-05-06T03:15:01.826Z,256
2023-05-06T03:15:31.689Z,251
2023-05-06T03:16:04.516Z,251
2023-05-06T03:16:35.565Z,275
2023-05-06T03:17:08.357Z,275
2023-05-06T03:17:39.435Z,258
2023-05-06T03:18:12.105Z,258
2023-05-06T03:18:43.584Z,258
2023-05-06T03:19:16.370Z,266
2023-05-06T03:19:47.419Z,266
2023-05-06T03:20:20.734Z,266
2023-05-06T03:20:51.577Z,251
2023-05-06T03:21:24.134Z,231
2023-05-06T03:21:55.515Z,237
2023-05-06T03:22:28.214Z,237
2023-05-06T03:22:59.565Z,229
2023-05-06T03:23:32.219Z,229
2023-05-06T03:24:03.556Z,229
2023-05-06T03:24:36.485Z,229
2023-05-06T03:25:07.889Z,229
2023-05-06T03:25:40.269Z,229
2023-05-06T03:26:11.676Z,229
2023-05-06T03:26:44.504Z,258
2023-05-06T03:27:15.472Z,205
2023-05-06T03:27:48.353Z,205
2023-05-06T03:28:19.572Z,241
2023-05-06T03:28:52.313Z,241
2023-05-06T03:29:23.565Z,239
2023-05-06T03:29:56.682Z,241
2023-05-06T03:30:28.601Z,241
2023-05-06T03:31:00.176Z,241
2023-05-06T03:31:31.694Z,241
2023-05-06T03:32:05.311Z,256
2023-05-06T03:32:35.646Z,256
2023-05-06T03:33:08.428Z,193
2023-05-06T03:33:39.542Z,257
2023-05-06T03:34:12.127Z,257
2023-05-06T03:34:43.577Z,257
2023-05-06T03:35:16.553Z,257
2023-05-06T03:35:47.582Z,257
2023-05-06T03:36:20.307Z,220
2023-05-06T03:36:51.364Z,239
2023-05-06T03:37:25.532Z,239
2023-05-06T03:37:55.382Z,259
2023-05-06T03:38:28.398Z,254
2023-05-06T03:38:59.493Z,254
2023-05-06T03:39:32.351Z,254
2023-05-06T03:40:03.609Z,245
2023-05-06T03:40:37.496Z,237
2023-05-06T03:41:07.501Z,237
2023-05-06T03:41:40.466Z,237
2023-05-06T03:42:11.524Z,237
2023-05-06T03:42:44.279Z,237
2023-05-06T03:43:15.414Z,237
2023-05-06T03:43:48.385Z,237
2023-05-06T03:44:19.470Z,173
2023-05-06T03:44:52.400Z,237
2023-05-06T03:45:24.298Z,237
2023-05-06T03:45:56.556Z,212
2023-05-06T03:46:27.570Z,212
2023-05-06T03:47:00.288Z,203
2023-05-06T03:47:31.446Z,232
2023-05-06T03:48:04.319Z,232
2023-05-06T03:48:35.562Z,232
2023-05-06T03:49:08.196Z,256
2023-05-06T03:49:39.542Z,256
2023-05-06T03:50:12.673Z,256
2023-05-06T03:50:43.474Z,256
2023-05-06T03:50:59.975Z,234
2023-05-06T03:51:31.634Z,242
2023-05-06T03:52:03.412Z,246
2023-05-06T03:52:36.490Z,250
2023-05-06T03:53:07.576Z,250
2023-05-06T03:53:41.116Z,250
2023-05-06T03:54:11.500Z,250
2023-05-06T03:54:44.351Z,250
2023-05-06T03:55:15.897Z,228
2023-05-06T03:55:48.212Z,225
2023-05-06T03:56:19.702Z,233
2023-05-06T03:56:52.579Z,233
2023-05-06T03:57:23.654Z,246
2023-05-06T03:57:56.635Z,250
2023-05-06T03:58:27.700Z,250
2023-05-06T03:59:00.365Z,257
2023-05-06T03:59:31.651Z,241
2023-05-06T04:00:05.905Z,241
2023-05-06T04:00:35.662Z,241
2023-05-06T04:01:08.563Z,246
2023-05-06T04:01:39.715Z,212
2023-05-06T04:02:12.841Z,225
2023-05-06T04:02:43.937Z,225
2023-05-06T04:03:16.456Z,250
2023-05-06T04:03:47.901Z,250
2023-05-06T04:04:20.538Z,220
2023-05-06T04:04:51.749Z,220
2023-05-06T04:05:24.739Z,186
2023-05-06T04:05:55.920Z,235
2023-05-06T04:06:28.381Z,235
2023-05-06T04:06:59.670Z,222
2023-05-06T04:07:32.814Z,218
2023-05-06T04:08:03.809Z,218
2023-05-06T04:08:37.021Z,218
2023-05-06T04:09:07.675Z,218
2023-05-06T04:09:40.456Z,218
2023-05-06T04:10:11.996Z,218
2023-05-06T04:10:44.441Z,256
2023-05-06T04:11:15.720Z,253
2023-05-06T04:11:48.586Z,227
2023-05-06T04:12:19.660Z,231
2023-05-06T04:12:52.780Z,223
2023-05-06T04:13:23.723Z,252
2023-05-06T04:13:56.733Z,206
2023-05-06T04:14:27.687Z,217
2023-05-06T04:15:02.177Z,217
2023-05-06T04:15:31.994Z,217
2023-05-06T04:16:04.625Z,217
2023-05-06T04:16:35.647Z,217
2023-05-06T04:17:08.753Z,236
2023-05-06T04:17:39.798Z,222
2023-05-06T04:18:12.504Z,222
2023-05-06T04:18:43.716Z,227
2023-05-06T04:19:16.543Z,227
2023-05-06T04:19:47.639Z,231
2023-05-06T04:20:20.921Z,231
2023-05-06T04:20:51.854Z,231
2023-05-06T04:21:24.649Z,227
2023-05-06T04:21:55.736Z,267
2023-05-06T04:22:28.707Z,267
2023-05-06T04:22:59.879Z,267
2023-05-06T04:23:32.570Z,238
2023-05-06T04:24:03.821Z,267
2023-05-06T04:24:36.556Z,267
2023-05-06T04:25:07.908Z,267
2023-05-06T04:25:40.472Z,267
2023-05-06T04:26:11.773Z,267
2023-05-06T04:26:44.619Z,267
2023-05-06T04:27:15.653Z,248
2023-05-06T04:27:48.664Z,232
2023-05-06T04:28:19.869Z,269
2023-05-06T04:28:52.429Z,235
2023-05-06T04:29:23.642Z,276
2023-05-06T04:29:56.918Z,276
2023-05-06T04:30:28.697Z,276
2023-05-06T04:31:00.588Z,276
2023-05-06T04:31:31.891Z,276
2023-05-06T04:32:05.017Z,245
2023-05-06T04:32:35.643Z,259
2023-05-06T04:33:08.488Z,253
2023-05-06T04:33:39.795Z,246
2023-05-06T04:34:12.323Z,246
2023-05-06T04:34:43.750Z,278
2023-05-06T04:34:59.952Z,248
2023-05-06T04:35:32.070Z,248
2023-05-06T04:36:03.737Z,248
2023-05-06T04:36:35.835Z,282
2023-05-06T04:37:07.725Z,248
2023-05-06T04:37:40.573Z,252
2023-05-06T04:38:11.777Z,252
2023-05-06T04:38:44.685Z,252
2023-05-06T04:39:15.708Z,252
2023-05-06T04:39:48.539Z,278
2023-05-06T04:40:20.140Z,263
2023-05-06T04:40:52.816Z,263
2023-05-06T04:41:23.799Z,280
2023-05-06T04:41:56.766Z,280
2023-05-06T04:42:27.936Z,262
2023-05-06T04:43:00.823Z,277
2023-05-06T04:43:31.798Z,277
2023-05-06T04:44:04.662Z,277
2023-05-06T04:44:35.689Z,294
2023-05-06T04:45:10.406Z,289
2023-05-06T04:45:39.889Z,279
2023-05-06T04:46:12.549Z,279
2023-05-06T04:46:43.697Z,285
2023-05-06T04:47:16.477Z,285
2023-05-06T04:47:47.888Z,285
2023-05-06T04:48:20.460Z,271
2023-05-06T04:48:51.799Z,273
2023-05-06T04:49:24.521Z,282
2023-05-06T04:49:55.717Z,270
2023-05-06T04:50:28.894Z,270
2023-05-06T04:50:59.854Z,270
2023-05-06T04:51:32.816Z,277
2023-05-06T04:52:03.626Z,270
2023-05-06T04:52:36.725Z,270
2023-05-06T04:53:07.818Z,270
2023-05-06T04:53:42.480Z,270
2023-05-06T04:54:11.779Z,261
2023-05-06T04:54:45.665Z,270
2023-05-06T04:55:15.878Z,270
2023-05-06T04:55:48.486Z,269
2023-05-06T04:56:19.819Z,281
2023-05-06T04:56:52.552Z,261
2023-05-06T04:57:23.728Z,261
2023-05-06T04:57:56.799Z,261
2023-05-06T04:58:27.869Z,261
2023-05-06T04:59:00.873Z,261
2023-05-06T04:59:31.672Z,266
2023-05-06T05:00:05.983Z,266
2023-05-06T05:00:35.904Z,260
2023-05-06T05:01:08.585Z,260
2023-05-06T05:01:39.792Z,260
2023-05-06T05:02:12.895Z,260
2023-05-06T05:02:43.696Z,265
2023-05-06T05:02:59.986Z,265
2023-05-06T05:03:31.974Z,259
2023-05-06T05:04:03.681Z,259
2023-05-06T05:04:36.776Z,257
2023-05-06T05:05:08.011Z,257
2023-05-06T05:05:40.441Z,257
2023-05-06T05:06:11.597Z,257
2023-05-06T05:06:44.721Z,257
2023-05-06T05:07:15.747Z,257
2023-05-06T05:07:48.829Z,265
2023-05-06T05:08:19.824Z,214
2023-05-06T05:08:53.833Z,216
2023-05-06T05:09:23.725Z,216
2023-05-06T05:09:56.861Z,216
2023-05-06T05:10:28.036Z,216
2023-05-06T05:11:00.446Z,214
2023-05-06T05:11:31.729Z,214
2023-05-06T05:12:06.577Z,255
2023-05-06T05:12:35.930Z,255
2023-05-06T05:13:10.642Z,248
2023-05-06T05:13:39.780Z,246
2023-05-06T05:14:12.576Z,246
2023-05-06T05:14:43.802Z,248
2023-05-06T05:15:17.444Z,248
2023-05-06T05:15:47.931Z,248
2023-05-06T05:16:20.677Z,246
2023-05-06T05:16:51.721Z,246
2023-05-06T05:17:24.736Z,233
2023-05-06T05:17:55.881Z,233
2023-05-06T05:18:29.649Z,246
2023-05-06T05:19:02.186Z,237
2023-05-06T05:19:32.711Z,237
2023-05-06T05:20:04.135Z,237
2023-05-06T05:20:36.808Z,237
2023-05-06T05:21:07.690Z,237
2023-05-06T05:21:40.652Z,237
2023-05-06T05:22:11.700Z,237
2023-05-06T05:22:44.562Z,237
2023-05-06T05:23:15.681Z,237
2023-05-06T05:23:48.549Z,233
2023-05-06T05:24:19.549Z,178
2023-05-06T05:24:52.546Z,237
2023-05-06T05:25:24.088Z,243
2023-05-06T05:25:56.446Z,243
2023-05-06T05:26:27.791Z,243
2023-05-06T05:27:00.515Z,233
2023-05-06T05:27:31.675Z,233
2023-05-06T05:28:06.014Z,230
2023-05-06T05:28:36.211Z,228
2023-05-06T05:29:08.814Z,228
2023-05-06T05:29:39.717Z,228
2023-05-06T05:30:13.549Z,239
2023-05-06T05:30:43.805Z,237
2023-05-06T05:31:16.584Z,237
2023-05-06T05:31:48.103Z,241
2023-05-06T05:32:21.015Z,237
2023-05-06T05:32:52.203Z,237
2023-05-06T05:33:24.945Z,237
2023-05-06T05:33:55.859Z,223
2023-05-06T05:34:28.778Z,223
2023-05-06T05:35:00.145Z,223
2023-05-06T05:35:33.279Z,223
2023-05-06T05:36:04.052Z,223
2023-05-06T05:36:36.781Z,223
2023-05-06T05:37:08.130Z,223
2023-05-06T05:37:40.871Z,223
2023-05-06T05:38:12.033Z,223
2023-05-06T05:38:44.918Z,265
2023-05-06T05:39:16.157Z,223
2023-05-06T05:39:48.912Z,223
2023-05-06T05:40:20.505Z,168
2023-05-06T05:40:53.161Z,248
2023-05-06T05:41:24.097Z,182
2023-05-06T05:41:56.746Z,182
2023-05-06T05:42:28.131Z,257
2023-05-06T05:43:01.186Z,276
2023-05-06T05:43:31.987Z,276
2023-05-06T05:44:04.592Z,276
2023-05-06T05:44:35.978Z,251
2023-05-06T05:45:10.101Z,283
2023-05-06T05:45:40.280Z,251
2023-05-06T05:46:12.853Z,337
2023-05-06T05:46:44.166Z,283
2023-05-06T05:47:16.955Z,253
2023-05-06T05:47:48.180Z,253
2023-05-06T05:48:21.021Z,257
2023-05-06T05:48:52.036Z,272
2023-05-06T05:49:24.733Z,272
2023-05-06T05:49:56.101Z,233
2023-05-06T05:50:29.219Z,275
2023-05-06T05:50:59.678Z,239
2023-05-06T05:51:32.662Z,275
2023-05-06T05:52:03.814Z,232
2023-05-06T05:52:36.744Z,253
2023-05-06T05:53:07.728Z,253
2023-05-06T05:53:40.840Z,275
2023-05-06T05:54:11.711Z,275
2023-05-06T05:54:44.711Z,275
2023-05-06T05:55:16.076Z,279
2023-05-06T05:55:48.480Z,279
2023-05-06T05:56:19.779Z,272
2023-05-06T05:56:53.519Z,272
2023-05-06T05:57:23.696Z,272
2023-05-06T05:57:56.557Z,275
2023-05-06T05:58:27.764Z,275
2023-05-06T05:59:00.669Z,275
2023-05-06T05:59:31.733Z,275
2023-05-06T06:00:05.957Z,276
2023-05-06T06:00:35.949Z,276
2023-05-06T06:01:08.482Z,276
2023-05-06T06:01:39.676Z,276
2023-05-06T06:02:12.690Z,276
2023-05-06T06:02:43.929Z,276
2023-05-06T06:03:16.569Z,276
2023-05-06T06:03:47.922Z,276
2023-05-06T06:04:23.623Z,276
2023-05-06T06:04:51.795Z,276
2023-05-06T06:05:24.828Z,276
2023-05-06T06:05:56.214Z,278
2023-05-06T06:06:29.155Z,284
2023-05-06T06:06:59.887Z,284
2023-05-06T06:07:32.956Z,284
2023-05-06T06:08:04.191Z,257
2023-05-06T06:08:36.773Z,284
2023-05-06T06:09:08.120Z,267
2023-05-06T06:09:40.964Z,257
2023-05-06T06:10:12.347Z,257
2023-05-06T06:10:44.943Z,284
2023-05-06T06:11:16.161Z,284
2023-05-06T06:11:48.928Z,257
2023-05-06T06:12:19.965Z,257
2023-05-06T06:12:52.775Z,284
2023-05-06T06:13:25.886Z,278
2023-05-06T06:13:56.920Z,262
2023-05-06T06:14:28.058Z,270
2023-05-06T06:15:02.267Z,262
2023-05-06T06:15:32.401Z,262
2023-05-06T06:16:05.712Z,262
2023-05-06T06:16:36.154Z,262
2023-05-06T06:17:08.945Z,262
2023-05-06T06:17:40.293Z,270
2023-05-06T06:18:12.878Z,270
2023-05-06T06:18:44.092Z,270
2023-05-06T06:19:16.945Z,175
2023-05-06T06:19:48.010Z,270
2023-05-06T06:20:21.186Z,286
2023-05-06T06:20:53.514Z,270
2023-05-06T06:21:24.611Z,279
2023-05-06T06:21:56.069Z,283
2023-05-06T06:22:29.000Z,279
2023-05-06T06:23:00.197Z,277
2023-05-06T06:23:32.860Z,283
2023-05-06T06:24:04.152Z,283
2023-05-06T06:24:36.983Z,269
2023-05-06T06:25:08.292Z,269
2023-05-06T06:25:41.803Z,255
2023-05-06T06:26:12.551Z,255
2023-05-06T06:26:45.071Z,282
2023-05-06T06:27:16.108Z,282
2023-05-06T06:27:48.896Z,282
2023-05-06T06:28:20.160Z,282
2023-05-06T06:28:52.862Z,282
2023-05-06T06:29:24.014Z,282
2023-05-06T06:29:56.924Z,221
2023-05-06T06:30:29.066Z,279
2023-05-06T06:31:00.806Z,279
2023-05-06T06:31:32.253Z,227
2023-05-06T06:32:05.139Z,279
2023-05-06T06:32:35.982Z,227
2023-05-06T06:33:08.917Z,276
2023-05-06T06:33:40.188Z,276
2023-05-06T06:34:12.831Z,281
2023-05-06T06:34:44.154Z,287
2023-05-06T06:35:17.216Z,287
2023-05-06T06:35:48.155Z,287
2023-05-06T06:36:20.834Z,240
2023-05-06T06:36:51.953Z,223
2023-05-06T06:37:24.926Z,288
2023-05-06T06:37:56.062Z,275
2023-05-06T06:38:28.772Z,281
2023-05-06T06:39:00.115Z,281
2023-05-06T06:39:32.955Z,338
2023-05-06T06:40:04.322Z,281
2023-05-06T06:40:36.865Z,284
2023-05-06T06:41:08.391Z,284
2023-05-06T06:41:40.768Z,284
2023-05-06T06:42:12.074Z,284
2023-05-06T06:42:44.986Z,284
2023-05-06T06:43:16.168Z,284
2023-05-06T06:43:48.837Z,284
2023-05-06T06:44:19.957Z,284
2023-05-06T06:44:53.035Z,284
2023-05-06T06:45:25.035Z,284
2023-05-06T06:45:57.239Z,284
2023-05-06T06:46:28.194Z,284
2023-05-06T06:47:00.935Z,278
2023-05-06T06:47:32.107Z,278
2023-05-06T06:48:05.082Z,278
2023-05-06T06:48:36.173Z,271
2023-05-06T06:49:08.696Z,271
2023-05-06T06:49:40.105Z,286
2023-05-06T06:50:14.070Z,286
2023-05-06T06:50:44.160Z,204
2023-05-06T06:51:16.839Z,302
2023-05-06T06:51:48.109Z,263
2023-05-06T06:52:20.867Z,276
2023-05-06T06:52:52.115Z,268
2023-05-06T06:53:24.726Z,268
2023-05-06T06:53:56.169Z,268
2023-05-06T06:54:28.832Z,268
2023-05-06T06:54:59.980Z,268
2023-05-06T06:55:33.138Z,263
2023-05-06T06:56:04.258Z,263
2023-05-06T06:56:36.506Z,263
2023-05-06T06:57:07.867Z,268
2023-05-06T06:57:41.119Z,270
2023-05-06T06:58:12.329Z,264
2023-05-06T06:58:44.924Z,267
2023-05-06T06:59:16.214Z,264
2023-05-06T06:59:48.994Z,267
2023-05-06T07:00:21.278Z,273
2023-05-06T07:00:52.861Z,273
2023-05-06T07:01:24.247Z,273
2023-05-06T07:01:56.830Z,246
2023-05-06T07:02:28.137Z,268
2023-05-06T07:03:01.142Z,264
2023-05-06T07:03:32.287Z,264
2023-05-06T07:04:07.113Z,264
2023-05-06T07:04:36.072Z,264
2023-05-06T07:05:09.463Z,264
2023-05-06T07:05:39.986Z,264
2023-05-06T07:06:12.898Z,264
2023-05-06T07:06:44.236Z,264
2023-05-06T07:07:17.085Z,264
2023-05-06T07:07:47.987Z,264
2023-05-06T07:08:21.015Z,264
2023-05-06T07:08:52.169Z,264
2023-05-06T07:09:24.732Z,264
2023-05-06T07:09:55.995Z,264
2023-05-06T07:10:29.133Z,264
2023-05-06T07:10:59.980Z,264
2023-05-06T07:11:33.144Z,264
2023-05-06T07:12:04.105Z,264
2023-05-06T07:12:37.062Z,264
2023-05-06T07:13:07.984Z,264
2023-05-06T07:13:40.871Z,254
2023-05-06T07:14:12.143Z,278
2023-05-06T07:14:44.981Z,295
2023-05-06T07:15:16.945Z,295
2023-05-06T07:15:49.265Z,295
2023-05-06T07:16:20.185Z,264
2023-05-06T07:16:52.945Z,287
2023-05-06T07:17:24.206Z,290
2023-05-06T07:17:57.166Z,281
2023-05-06T07:18:28.014Z,286
2023-05-06T07:19:01.914Z,260